Time;durP1;ratioP1;P1;durP2;ratioP2;P2;SDS_P1;SDS_P2;PMS_P1;PMS_P2;Temp;Humidity;BMP_temperature;BMP_pressure;BME280_temperature;BME280_humidity;BME280_pressure;Samples;Min_cycle;Max_cycle;Signal;HPM_P1;HPM_P2
2021/11/27 00:01:25;;;;;;;9.60;4.78;;;;;;;;;;143739;585;47012;-54
2021/11/27 00:03:54;;;;;;;8.65;5.05;;;;;;;;;;143740;573;46020;-54
2021/11/27 00:06:22;;;;;;;9.27;5.22;;;;;;;;;;143744;614;46021;-55
2021/11/27 00:08:49;;;;;;;11.70;5.57;;;;;;;;;;143742;612;47020;-54
2021/11/27 00:11:17;;;;;;;6.87;4.97;;;;;;;;;;143741;587;47013;-54
2021/11/27 00:13:45;;;;;;;7.30;4.62;;;;;;;;;;143742;680;46021;-54
2021/11/27 00:16:12;;;;;;;7.53;5.57;;;;;;;;;;143744;638;46020;-55
2021/11/27 00:18:39;;;;;;;11.40;6.00;;;;;;;;;;143740;651;47022;-54
2021/11/27 00:21:10;;;;;;;8.73;5.55;;;;;;;;;;143740;571;47013;-54
2021/11/27 00:23:39;;;;;;;8.45;5.72;;;;;;;;;;143742;629;46020;-55
2021/11/27 00:26:08;;;;;;;7.15;5.22;;;;;;;;;;143745;586;46020;-55
2021/11/27 00:28:35;;;;;;;9.63;6.07;;;;;;;;;;143741;609;47021;-54
2021/11/27 00:31:07;;;;;;;8.05;5.82;;;;;;;;;;143739;595;47012;-55
2021/11/27 00:33:34;;;;;;;8.85;5.43;;;;;;;;;;143741;567;46020;-54
2021/11/27 00:36:01;;;;;;;9.63;5.78;;;;;;;;;;143745;565;46021;-55
2021/11/27 00:38:29;;;;;;;12.63;5.60;;;;;;;;;;143740;573;47022;-54
2021/11/27 00:40:56;;;;;;;10.23;5.10;;;;;;;;;;143738;641;47013;-54
2021/11/27 00:43:23;;;;;;;11.45;5.20;;;;;;;;;;143740;645;46910;-55
2021/11/27 00:45:50;;;;;;;10.80;5.10;;;;;;;;;;143745;569;46020;-55
2021/11/27 00:48:18;;;;;;;7.45;4.68;;;;;;;;;;143741;597;47021;-54
2021/11/27 00:50:50;;;;;;;6.85;4.62;;;;;;;;;;143741;588;47012;-55
2021/11/27 00:53:18;;;;;;;8.23;4.80;;;;;;;;;;143745;649;46020;-54
2021/11/27 00:55:46;;;;;;;6.50;4.60;;;;;;;;;;143746;631;46020;-54
2021/11/27 00:58:14;;;;;;;6.80;4.85;;;;;;;;;;143738;566;47023;-55
2021/11/27 01:00:48;;;;;;;9.82;4.47;;;;;;;;;;143739;564;47012;-54
2021/11/27 01:03:18;;;;;;;7.97;5.12;;;;;;;;;;143742;564;46020;-55
2021/11/27 01:05:46;;;;;;;7.82;4.65;;;;;;;;;;143745;589;46021;-55
2021/11/27 01:08:13;;;;;;;6.62;5.00;;;;;;;;;;143741;578;47020;-55
2021/11/27 01:10:47;;;;;;;7.43;5.07;;;;;;;;;;143740;609;47013;-55
2021/11/27 01:13:14;;;;;;;7.20;4.87;;;;;;;;;;143742;620;46021;-55
2021/11/27 01:15:41;;;;;;;7.97;5.75;;;;;;;;;;143743;603;46020;-55
2021/11/27 01:18:08;;;;;;;8.73;5.20;;;;;;;;;;143739;583;47020;-55
2021/11/27 01:20:46;;;;;;;11.30;6.62;;;;;;;;;;143741;565;47012;-55
2021/11/27 01:23:13;;;;;;;7.03;5.60;;;;;;;;;;143741;588;46020;-55
2021/11/27 01:25:43;;;;;;;10.43;5.97;;;;;;;;;;143744;571;46020;-54
2021/11/27 01:28:11;;;;;;;9.52;6.03;;;;;;;;;;143740;567;47023;-54
2021/11/27 01:30:38;;;;;;;10.35;6.10;;;;;;;;;;143742;586;46012;-54
2021/11/27 01:33:05;;;;;;;7.00;5.10;;;;;;;;;;143741;563;46020;-54
2021/11/27 01:35:33;;;;;;;10.32;5.90;;;;;;;;;;143745;592;46021;-55
2021/11/27 01:38:00;;;;;;;9.38;5.57;;;;;;;;;;143741;613;47020;-54
2021/11/27 01:40:27;;;;;;;9.38;4.78;;;;;;;;;;143741;569;47021;-54
2021/11/27 01:42:56;;;;;;;8.90;5.12;;;;;;;;;;143743;643;46021;-54
2021/11/27 01:45:25;;;;;;;8.20;4.80;;;;;;;;;;143746;569;46020;-54
2021/11/27 01:47:57;;;;;;;8.98;4.85;;;;;;;;;;143742;633;47021;-54
2021/11/27 01:50:28;;;;;;;7.35;4.62;;;;;;;;;;143740;636;47012;-54
2021/11/27 01:52:55;;;;;;;8.45;5.18;;;;;;;;;;143740;654;46020;-54
2021/11/27 01:55:23;;;;;;;9.00;4.72;;;;;;;;;;143746;636;46020;-54
2021/11/27 01:57:50;;;;;;;10.60;4.80;;;;;;;;;;143742;634;47020;-54
2021/11/27 02:00:21;;;;;;;9.30;4.57;;;;;;;;;;143739;591;47012;-54
2021/11/27 02:02:49;;;;;;;7.60;4.80;;;;;;;;;;143742;572;46020;-54
2021/11/27 02:05:17;;;;;;;11.82;4.80;;;;;;;;;;143747;597;46021;-54
2021/11/27 02:07:44;;;;;;;7.75;5.05;;;;;;;;;;143741;564;47020;-54
2021/11/27 02:10:13;;;;;;;9.23;5.22;;;;;;;;;;143740;603;47020;-54
2021/11/27 02:12:42;;;;;;;12.48;6.25;;;;;;;;;;143741;648;46021;-54
2021/11/27 02:15:11;;;;;;;9.73;4.95;;;;;;;;;;143742;566;46020;-54
2021/11/27 02:17:38;;;;;;;11.80;5.70;;;;;;;;;;143741;624;47022;-54
2021/11/27 02:20:07;;;;;;;9.98;5.10;;;;;;;;;;143738;574;48012;-55
2021/11/27 02:22:34;;;;;;;9.13;5.12;;;;;;;;;;143741;610;46020;-55
2021/11/27 02:25:10;;;;;;;9.90;4.65;;;;;;;;;;143746;626;46020;-54
2021/11/27 02:27:37;;;;;;;10.05;5.18;;;;;;;;;;143742;645;47020;-54
2021/11/27 02:30:06;;;;;;;11.38;6.35;;;;;;;;;;143741;688;46020;-55
2021/11/27 02:32:32;;;;;;;12.25;6.65;;;;;;;;;;143743;639;46020;-54
2021/11/27 02:34:59;;;;;;;10.00;5.62;;;;;;;;;;143741;578;46021;-54
2021/11/27 02:37:26;;;;;;;8.88;5.18;;;;;;;;;;143739;654;47020;-54
2021/11/27 02:39:54;;;;;;;10.88;5.82;;;;;;;;;;143740;574;47013;-54
2021/11/27 02:42:21;;;;;;;7.37;5.65;;;;;;;;;;143742;618;46021;-55
2021/11/27 02:44:49;;;;;;;11.48;5.70;;;;;;;;;;143744;594;46020;-54
2021/11/27 02:47:16;;;;;;;9.23;6.00;;;;;;;;;;143741;646;47021;-53
2021/11/27 02:49:43;;;;;;;8.35;5.37;;;;;;;;;;143740;569;47012;-55
2021/11/27 02:52:11;;;;;;;10.02;6.03;;;;;;;;;;143740;609;46020;-54
2021/11/27 02:54:38;;;;;;;9.80;6.05;;;;;;;;;;143744;588;46020;-54
2021/11/27 02:57:06;;;;;;;9.70;6.30;;;;;;;;;;143742;587;47021;-53
2021/11/27 02:59:34;;;;;;;9.35;6.43;;;;;;;;;;143740;630;47012;-53
2021/11/27 03:02:03;;;;;;;10.90;6.62;;;;;;;;;;143742;595;46020;-53
2021/11/27 03:04:32;;;;;;;11.00;7.32;;;;;;;;;;143746;579;46021;-54
2021/11/27 03:06:59;;;;;;;11.00;6.78;;;;;;;;;;143740;595;47022;-54
2021/11/27 03:09:26;;;;;;;19.67;6.82;;;;;;;;;;143739;611;47012;-54
2021/11/27 03:11:56;;;;;;;8.88;6.05;;;;;;;;;;143743;616;46021;-54
2021/11/27 03:14:26;;;;;;;8.50;5.82;;;;;;;;;;143746;618;46020;-54
2021/11/27 03:16:54;;;;;;;11.30;6.95;;;;;;;;;;143741;565;47020;-54
2021/11/27 03:19:21;;;;;;;11.32;6.57;;;;;;;;;;143741;596;47012;-54
2021/11/27 03:21:48;;;;;;;8.90;6.00;;;;;;;;;;143743;580;46020;-55
2021/11/27 03:24:16;;;;;;;8.88;6.57;;;;;;;;;;143744;610;46020;-54
2021/11/27 03:26:43;;;;;;;13.13;7.82;;;;;;;;;;143740;649;47022;-54
2021/11/27 03:29:10;;;;;;;11.70;7.55;;;;;;;;;;143740;577;47012;-54
2021/11/27 03:31:37;;;;;;;13.80;7.35;;;;;;;;;;143742;589;46020;-54
2021/11/27 03:34:04;;;;;;;8.55;5.87;;;;;;;;;;143742;588;46021;-54
2021/11/27 03:36:31;;;;;;;14.52;7.20;;;;;;;;;;143743;572;47020;-54
2021/11/27 03:38:58;;;;;;;12.00;6.18;;;;;;;;;;143740;622;47012;-54
2021/11/27 03:41:25;;;;;;;9.90;6.65;;;;;;;;;;143743;570;46020;-54
2021/11/27 03:43:52;;;;;;;11.60;6.70;;;;;;;;;;143745;580;46020;-54
2021/11/27 03:46:20;;;;;;;9.38;6.57;;;;;;;;;;143741;596;47022;-54
2021/11/27 03:48:47;;;;;;;10.13;7.47;;;;;;;;;;143741;587;47012;-54
2021/11/27 03:51:20;;;;;;;14.55;8.43;;;;;;;;;;143743;572;46020;-54
2021/11/27 03:53:48;;;;;;;9.95;6.97;;;;;;;;;;143743;623;46020;-54
2021/11/27 03:56:21;;;;;;;13.13;8.38;;;;;;;;;;143739;575;47023;-54
2021/11/27 03:58:49;;;;;;;8.73;6.43;;;;;;;;;;143741;566;47012;-54
2021/11/27 04:01:19;;;;;;;11.98;7.62;;;;;;;;;;143742;564;46020;-54
2021/11/27 04:03:48;;;;;;;13.52;7.80;;;;;;;;;;143746;591;46021;-54
2021/11/27 04:06:15;;;;;;;12.85;7.80;;;;;;;;;;143740;579;47022;-55
2021/11/27 04:08:43;;;;;;;13.25;7.60;;;;;;;;;;143740;577;47012;-54
2021/11/27 04:11:10;;;;;;;12.57;7.53;;;;;;;;;;143743;569;46021;-53
2021/11/27 04:13:37;;;;;;;10.18;7.35;;;;;;;;;;143744;635;46020;-54
2021/11/27 04:16:05;;;;;;;9.43;6.75;;;;;;;;;;143739;635;47022;-54
2021/11/27 04:18:32;;;;;;;14.77;8.18;;;;;;;;;;143742;564;46034;-53
2021/11/27 04:20:59;;;;;;;10.30;7.97;;;;;;;;;;143740;579;46020;-54
2021/11/27 04:23:26;;;;;;;11.38;7.45;;;;;;;;;;143745;577;46020;-55
2021/11/27 04:25:53;;;;;;;8.32;6.35;;;;;;;;;;143742;614;47021;-54
2021/11/27 04:28:20;;;;;;;13.02;8.13;;;;;;;;;;143741;587;47020;-53
2021/11/27 04:30:48;;;;;;;11.52;8.23;;;;;;;;;;143740;657;46020;-54
2021/11/27 04:33:14;;;;;;;13.60;7.70;;;;;;;;;;143745;653;46021;-54
2021/11/27 04:35:41;;;;;;;16.05;8.40;;;;;;;;;;143741;600;47022;-54
2021/11/27 04:38:08;;;;;;;19.62;7.87;;;;;;;;;;143740;574;47012;-55
2021/11/27 04:40:36;;;;;;;17.17;8.27;;;;;;;;;;143739;596;46020;-54
2021/11/27 04:43:03;;;;;;;8.05;6.12;;;;;;;;;;143746;618;46021;-55
2021/11/27 04:45:32;;;;;;;11.12;6.28;;;;;;;;;;143741;572;47020;-55
2021/11/27 04:47:59;;;;;;;13.35;6.50;;;;;;;;;;143741;606;47013;-54
2021/11/27 04:50:27;;;;;;;9.13;5.82;;;;;;;;;;143743;569;46021;-54
2021/11/27 04:52:55;;;;;;;11.38;7.05;;;;;;;;;;143743;570;46020;-55
2021/11/27 04:55:22;;;;;;;13.55;8.70;;;;;;;;;;143740;647;46022;-55
2021/11/27 04:57:49;;;;;;;15.80;13.68;;;;;;;;;;143741;583;47012;-54
2021/11/27 05:00:28;;;;;;;21.73;17.27;;;;;;;;;;143742;658;46020;-54
2021/11/27 05:02:55;;;;;;;11.50;8.27;;;;;;;;;;143744;627;46021;-54
2021/11/27 05:05:23;;;;;;;21.15;15.75;;;;;;;;;;143738;564;47023;-54
2021/11/27 05:07:51;;;;;;;19.02;14.27;;;;;;;;;;143741;563;47012;-55
2021/11/27 05:10:18;;;;;;;24.33;17.52;;;;;;;;;;143739;623;46036;-54
2021/11/27 05:12:46;;;;;;;17.35;14.48;;;;;;;;;;143743;569;46023;-54
2021/11/27 05:15:14;;;;;;;14.10;10.15;;;;;;;;;;143739;594;47020;-54
2021/11/27 05:17:40;;;;;;;11.98;9.68;;;;;;;;;;143737;570;47013;-54
2021/11/27 05:20:09;;;;;;;15.60;11.25;;;;;;;;;;143739;584;46018;-54
2021/11/27 05:22:36;;;;;;;18.92;14.20;;;;;;;;;;143742;604;46022;-55
2021/11/27 05:25:05;;;;;;;17.40;10.73;;;;;;;;;;143737;611;47020;-54
2021/11/27 05:27:33;;;;;;;13.55;9.75;;;;;;;;;;143739;646;47012;-54
2021/11/27 05:30:00;;;;;;;19.23;12.40;;;;;;;;;;143740;576;46018;-54
2021/11/27 05:32:39;;;;;;;13.95;10.50;;;;;;;;;;143743;567;46022;-55
2021/11/27 05:35:10;;;;;;;12.80;8.48;;;;;;;;;;143725;573;47018;-54
2021/11/27 05:37:37;;;;;;;13.80;8.48;;;;;;;;;;143738;565;47012;-54
2021/11/27 05:40:08;;;;;;;18.10;13.27;;;;;;;;;;143739;612;46018;-54
2021/11/27 05:42:35;;;;;;;28.90;24.08;;;;;;;;;;143743;565;46023;-54
2021/11/27 05:45:02;;;;;;;46.03;39.10;;;;;;;;;;143738;621;47020;-54
2021/11/27 05:47:29;;;;;;;48.22;40.95;;;;;;;;;;143739;566;47012;-55
2021/11/27 05:49:56;;;;;;;29.95;23.42;;;;;;;;;;143740;616;46018;-55
2021/11/27 05:52:23;;;;;;;29.83;22.55;;;;;;;;;;143743;592;46022;-55
2021/11/27 05:54:50;;;;;;;39.58;25.27;;;;;;;;;;143739;585;47020;-55
2021/11/27 05:57:18;;;;;;;27.27;22.33;;;;;;;;;;143732;606;47012;-55
2021/11/27 05:59:46;;;;;;;26.17;20.05;;;;;;;;;;143738;572;46018;-55
2021/11/27 06:02:14;;;;;;;24.65;14.90;;;;;;;;;;143745;587;46022;-55
2021/11/27 06:04:40;;;;;;;16.50;11.80;;;;;;;;;;143738;585;47020;-55
2021/11/27 06:07:07;;;;;;;14.80;9.48;;;;;;;;;;143738;637;47012;-55
2021/11/27 06:09:34;;;;;;;13.80;9.20;;;;;;;;;;143738;661;46018;-55
2021/11/27 06:12:02;;;;;;;19.30;8.77;;;;;;;;;;143744;564;46022;-55
2021/11/27 06:14:31;;;;;;;13.43;9.15;;;;;;;;;;143738;602;47018;-55
2021/11/27 06:16:58;;;;;;;14.40;8.15;;;;;;;;;;143738;576;47013;-55
2021/11/27 06:19:25;;;;;;;31.87;20.92;;;;;;;;;;143740;566;46019;-55
2021/11/27 06:21:52;;;;;;;24.48;16.77;;;;;;;;;;143741;564;46028;-55
2021/11/27 06:24:19;;;;;;;14.23;11.88;;;;;;;;;;143739;656;47020;-55
2021/11/27 06:26:46;;;;;;;26.98;21.00;;;;;;;;;;143738;661;47012;-54
2021/11/27 06:29:13;;;;;;;22.52;18.77;;;;;;;;;;143740;591;46018;-54
2021/11/27 06:31:40;;;;;;;25.92;18.70;;;;;;;;;;143742;573;46022;-54
2021/11/27 06:34:07;;;;;;;24.30;17.90;;;;;;;;;;143739;602;47018;-53
2021/11/27 06:36:34;;;;;;;26.77;18.85;;;;;;;;;;143739;587;47012;-53
2021/11/27 06:39:02;;;;;;;21.05;17.33;;;;;;;;;;143740;592;46018;-53
2021/11/27 06:41:29;;;;;;;29.35;17.23;;;;;;;;;;143741;608;47023;-53
2021/11/27 06:43:56;;;;;;;25.92;17.08;;;;;;;;;;143739;614;47020;-53
2021/11/27 06:46:23;;;;;;;29.70;16.70;;;;;;;;;;143739;575;47012;-53
2021/11/27 06:48:50;;;;;;;19.58;14.75;;;;;;;;;;143734;635;46018;-52
2021/11/27 06:51:17;;;;;;;18.42;11.50;;;;;;;;;;143739;578;47012;-53
2021/11/27 06:53:44;;;;;;;25.45;13.00;;;;;;;;;;143739;665;47019;-53
2021/11/27 06:56:12;;;;;;;20.15;10.13;;;;;;;;;;143738;570;47012;-53
2021/11/27 06:58:39;;;;;;;11.23;8.10;;;;;;;;;;143741;573;46018;-53
2021/11/27 07:01:07;;;;;;;15.25;7.72;;;;;;;;;;143744;574;46022;-52
2021/11/27 07:03:34;;;;;;;15.30;10.27;;;;;;;;;;143740;593;47018;-52
2021/11/27 07:06:02;;;;;;;29.30;14.20;;;;;;;;;;143738;569;47012;-52
2021/11/27 07:08:29;;;;;;;20.12;12.60;;;;;;;;;;143740;566;46018;-53
2021/11/27 07:10:56;;;;;;;23.45;12.80;;;;;;;;;;143742;575;46023;-53
2021/11/27 07:13:23;;;;;;;22.25;12.35;;;;;;;;;;143740;566;47018;-54
2021/11/27 07:15:50;;;;;;;17.65;12.37;;;;;;;;;;143738;634;47013;-53
2021/11/27 07:18:17;;;;;;;21.50;12.70;;;;;;;;;;143741;594;46019;-52
2021/11/27 07:20:44;;;;;;;17.98;11.05;;;;;;;;;;143743;684;46022;-52
2021/11/27 07:23:11;;;;;;;14.75;9.80;;;;;;;;;;143739;654;47019;-51
2021/11/27 07:25:38;;;;;;;20.30;10.43;;;;;;;;;;143738;636;47013;-51
2021/11/27 07:28:07;;;;;;;13.93;7.95;;;;;;;;;;143739;697;46018;-52
2021/11/27 07:30:34;;;;;;;11.32;7.70;;;;;;;;;;143744;587;46022;-54
2021/11/27 07:33:01;;;;;;;23.05;6.93;;;;;;;;;;143740;613;47018;-53
2021/11/27 07:35:28;;;;;;;12.88;8.02;;;;;;;;;;143738;638;47012;-53
2021/11/27 07:37:55;;;;;;;9.70;6.37;;;;;;;;;;143741;589;46018;-54
2021/11/27 07:40:23;;;;;;;21.37;7.60;;;;;;;;;;143743;581;46023;-53
2021/11/27 07:42:52;;;;;;;16.33;8.10;;;;;;;;;;143740;585;47018;-53
2021/11/27 07:45:20;;;;;;;10.57;6.70;;;;;;;;;;143739;628;47012;-52
2021/11/27 07:47:47;;;;;;;17.87;7.22;;;;;;;;;;143739;586;46019;-53
2021/11/27 07:50:14;;;;;;;10.32;7.03;;;;;;;;;;143743;585;46022;-52
2021/11/27 07:52:41;;;;;;;15.68;7.75;;;;;;;;;;143736;629;47022;-52
2021/11/27 07:55:09;;;;;;;18.25;8.32;;;;;;;;;;143738;605;47013;-51
2021/11/27 07:57:37;;;;;;;28.65;16.15;;;;;;;;;;143741;601;46018;-51
2021/11/27 08:00:05;;;;;;;43.13;29.08;;;;;;;;;;143742;640;46022;-52
2021/11/27 08:02:32;;;;;;;24.70;16.40;;;;;;;;;;143740;615;47019;-51
2021/11/27 08:04:59;;;;;;;14.10;8.48;;;;;;;;;;143739;880;47012;-51
2021/11/27 08:07:26;;;;;;;19.12;8.77;;;;;;;;;;143740;566;46018;-51
2021/11/27 08:09:54;;;;;;;13.13;8.43;;;;;;;;;;143743;588;46023;-51
2021/11/27 08:12:21;;;;;;;13.80;7.87;;;;;;;;;;143738;613;47020;-52
2021/11/27 08:14:48;;;;;;;16.05;7.78;;;;;;;;;;143739;614;47012;-51
2021/11/27 08:17:15;;;;;;;15.18;7.57;;;;;;;;;;143740;706;46019;-52
2021/11/27 08:19:42;;;;;;;17.37;9.38;;;;;;;;;;143742;610;48022;-51
2021/11/27 08:22:09;;;;;;;21.98;11.20;;;;;;;;;;143738;589;47020;-52
2021/11/27 08:24:36;;;;;;;18.12;9.80;;;;;;;;;;143739;570;47012;-52
2021/11/27 08:27:03;;;;;;;14.13;7.40;;;;;;;;;;143740;606;46018;-51
2021/11/27 08:29:30;;;;;;;12.80;7.68;;;;;;;;;;143742;569;46022;-51
2021/11/27 08:31:57;;;;;;;15.18;8.35;;;;;;;;;;143738;637;47019;-51
2021/11/27 08:34:24;;;;;;;15.38;10.23;;;;;;;;;;143738;674;47012;-52
2021/11/27 08:36:51;;;;;;;14.75;7.68;;;;;;;;;;143741;611;46018;-51
2021/11/27 08:39:18;;;;;;;17.08;9.93;;;;;;;;;;143743;587;46023;-51
2021/11/27 08:41:45;;;;;;;17.62;9.43;;;;;;;;;;143738;601;47020;-51
2021/11/27 08:44:12;;;;;;;14.68;8.85;;;;;;;;;;143736;575;47012;-51
2021/11/27 08:46:40;;;;;;;15.40;8.32;;;;;;;;;;143740;605;46018;-52
2021/11/27 08:49:07;;;;;;;12.07;7.12;;;;;;;;;;143742;611;46022;-51
2021/11/27 08:51:38;;;;;;;12.02;7.00;;;;;;;;;;143740;621;47018;-52
2021/11/27 08:54:06;;;;;;;12.63;7.05;;;;;;;;;;143739;594;47012;-51
2021/11/27 08:56:33;;;;;;;11.88;5.35;;;;;;;;;;143742;580;46018;-51
2021/11/27 08:59:00;;;;;;;15.48;5.37;;;;;;;;;;143741;702;46022;-52
2021/11/27 09:01:27;;;;;;;15.40;6.50;;;;;;;;;;143740;599;47020;-51
2021/11/27 09:03:54;;;;;;;11.55;4.90;;;;;;;;;;143739;593;47012;-52
2021/11/27 09:06:21;;;;;;;11.35;5.95;;;;;;;;;;143739;572;46018;-52
2021/11/27 09:08:49;;;;;;;12.55;7.50;;;;;;;;;;143743;575;46023;-52
2021/11/27 09:11:19;;;;;;;26.40;10.88;;;;;;;;;;143740;587;47018;-52
2021/11/27 09:13:47;;;;;;;25.98;9.65;;;;;;;;;;143739;573;47012;-52
2021/11/27 09:16:15;;;;;;;33.30;10.43;;;;;;;;;;143739;630;46018;-52
2021/11/27 09:18:42;;;;;;;29.02;11.75;;;;;;;;;;143741;570;46023;-51
2021/11/27 09:21:09;;;;;;;27.52;10.13;;;;;;;;;;143739;613;47020;-52
2021/11/27 09:23:36;;;;;;;15.15;4.90;;;;;;;;;;143739;626;47012;-51
2021/11/27 09:26:03;;;;;;;34.70;11.30;;;;;;;;;;143740;572;46018;-52
2021/11/27 09:28:30;;;;;;;30.05;12.48;;;;;;;;;;143743;672;46022;-52
2021/11/27 09:30:57;;;;;;;18.25;8.02;;;;;;;;;;143738;608;47020;-52
2021/11/27 09:33:26;;;;;;;23.52;8.98;;;;;;;;;;143738;583;47012;-52
2021/11/27 09:36:14;;;;;;;25.48;10.30;;;;;;;;;;143736;564;46018;-52
2021/11/27 09:38:41;;;;;;;13.02;5.18;;;;;;;;;;143742;571;47022;-52
2021/11/27 09:41:29;;;;;;;20.23;8.45;;;;;;;;;;143741;569;47018;-51
2021/11/27 09:43:58;;;;;;;19.08;8.15;;;;;;;;;;143738;566;47012;-51
2021/11/27 09:46:27;;;;;;;16.95;7.00;;;;;;;;;;143738;694;46018;-52
2021/11/27 09:48:59;;;;;;;18.70;7.97;;;;;;;;;;143743;589;46022;-52
2021/11/27 09:51:29;;;;;;;23.60;9.63;;;;;;;;;;143738;635;47020;-53
2021/11/27 09:53:58;;;;;;;18.70;8.07;;;;;;;;;;143740;603;47012;-53
2021/11/27 09:56:26;;;;;;;13.80;6.03;;;;;;;;;;143738;587;46018;-52
2021/11/27 09:58:54;;;;;;;11.35;6.57;;;;;;;;;;143744;571;46022;-53
2021/11/27 10:01:29;;;;;;;24.83;10.02;;;;;;;;;;143739;668;47019;-52
2021/11/27 10:04:02;;;;;;;29.83;10.85;;;;;;;;;;143738;608;47012;-53
2021/11/27 10:06:32;;;;;;;26.17;9.47;;;;;;;;;;143741;594;46018;-53
2021/11/27 10:09:01;;;;;;;27.10;10.65;;;;;;;;;;143742;564;46023;-53
2021/11/27 10:11:29;;;;;;;24.85;11.40;;;;;;;;;;143737;656;47020;-53
2021/11/27 10:13:56;;;;;;;28.25;11.38;;;;;;;;;;143738;653;47012;-52
2021/11/27 10:16:23;;;;;;;28.50;13.27;;;;;;;;;;143739;619;46019;-51
2021/11/27 10:19:11;;;;;;;27.65;9.82;;;;;;;;;;143742;602;46022;-52
2021/11/27 10:21:39;;;;;;;33.08;14.38;;;;;;;;;;143739;614;47018;-52
2021/11/27 10:24:30;;;;;;;28.55;10.90;;;;;;;;;;143739;619;47012;-52
2021/11/27 10:27:02;;;;;;;29.77;12.85;;;;;;;;;;143738;661;46018;-52
2021/11/27 10:29:36;;;;;;;14.98;7.65;;;;;;;;;;143742;661;46022;-52
2021/11/27 10:32:25;;;;;;;27.62;11.27;;;;;;;;;;143737;564;47018;-52
2021/11/27 10:34:55;;;;;;;20.15;8.05;;;;;;;;;;143737;593;47022;-52
2021/11/27 10:37:53;;;;;;;29.58;12.52;;;;;;;;;;143740;573;46018;-51
2021/11/27 10:40:24;;;;;;;20.10;8.25;;;;;;;;;;143743;611;46025;-52
2021/11/27 10:43:06;;;;;;;15.32;5.68;;;;;;;;;;143738;575;47018;-52
2021/11/27 10:45:36;;;;;;;15.95;7.45;;;;;;;;;;143741;569;46033;-51
2021/11/27 10:48:24;;;;;;;23.58;8.20;;;;;;;;;;143739;596;46018;-52
2021/11/27 10:50:59;;;;;;;32.13;14.38;;;;;;;;;;143741;579;46022;-52
2021/11/27 10:53:36;;;;;;;22.42;13.93;;;;;;;;;;143741;605;47019;-52
2021/11/27 10:56:11;;;;;;;61.15;39.03;;;;;;;;;;143739;636;47012;-52
2021/11/27 10:59:05;;;;;;;46.22;28.00;;;;;;;;;;143739;586;46018;-53
2021/11/27 11:01:32;;;;;;;51.42;36.53;;;;;;;;;;143744;573;46023;-52
2021/11/27 11:04:17;;;;;;;24.95;13.43;;;;;;;;;;143738;566;47018;-52
2021/11/27 11:06:46;;;;;;;54.08;33.08;;;;;;;;;;143739;575;47012;-51
2021/11/27 11:09:15;;;;;;;21.60;11.85;;;;;;;;;;143739;574;46019;-52
2021/11/27 11:11:42;;;;;;;21.70;11.20;;;;;;;;;;143744;592;46022;-51
2021/11/27 11:14:26;;;;;;;15.57;8.43;;;;;;;;;;143738;614;47020;-51
2021/11/27 11:16:57;;;;;;;19.85;10.05;;;;;;;;;;143740;590;47012;-52
2021/11/27 11:19:24;;;;;;;10.25;5.62;;;;;;;;;;143741;564;46018;-51
2021/11/27 11:22:10;;;;;;;32.72;17.80;;;;;;;;;;143744;596;46022;-52
2021/11/27 11:24:39;;;;;;;44.40;24.37;;;;;;;;;;143740;637;47023;-51
2021/11/27 11:27:09;;;;;;;17.58;9.48;;;;;;;;;;143737;595;47030;-51
2021/11/27 11:29:50;;;;;;;17.75;5.22;;;;;;;;;;143743;599;46018;-51
2021/11/27 11:32:27;;;;;;;14.60;6.80;;;;;;;;;;143743;564;46023;-52
2021/11/27 11:34:56;;;;;;;13.90;8.52;;;;;;;;;;143740;604;47018;-52
2021/11/27 11:37:23;;;;;;;33.22;18.67;;;;;;;;;;143738;570;47013;-51
2021/11/27 11:39:52;;;;;;;10.30;5.82;;;;;;;;;;143740;576;46019;-52
2021/11/27 11:42:25;;;;;;;15.77;4.80;;;;;;;;;;143742;589;46022;-52
2021/11/27 11:44:56;;;;;;;22.45;10.25;;;;;;;;;;143740;581;47020;-52
2021/11/27 11:47:24;;;;;;;18.37;8.23;;;;;;;;;;143739;572;47012;-52
2021/11/27 11:49:55;;;;;;;16.12;7.62;;;;;;;;;;143740;589;46018;-52
2021/11/27 11:52:37;;;;;;;19.00;10.10;;;;;;;;;;143742;564;46022;-52
2021/11/27 11:55:12;;;;;;;11.88;4.10;;;;;;;;;;143738;576;47021;-52
2021/11/27 11:57:50;;;;;;;19.62;8.63;;;;;;;;;;143739;583;47012;-52
2021/11/27 12:00:28;;;;;;;26.67;11.20;;;;;;;;;;143739;612;46018;-51
2021/11/27 12:03:08;;;;;;;17.60;8.80;;;;;;;;;;143741;569;46022;-52
2021/11/27 12:05:36;;;;;;;12.13;4.87;;;;;;;;;;143741;621;47020;-52
2021/11/27 12:08:05;;;;;;;10.65;4.78;;;;;;;;;;143740;593;47012;-52
2021/11/27 12:10:45;;;;;;;10.43;5.70;;;;;;;;;;143740;589;46018;-52
2021/11/27 12:13:22;;;;;;;20.55;9.35;;;;;;;;;;143742;567;46022;-51
2021/11/27 12:15:49;;;;;;;21.52;9.00;;;;;;;;;;143740;574;47019;-51
2021/11/27 12:18:20;;;;;;;23.60;11.82;;;;;;;;;;143737;604;47024;-52
2021/11/27 12:20:58;;;;;;;15.75;7.05;;;;;;;;;;143740;616;46018;-52
2021/11/27 12:23:42;;;;;;;21.87;9.00;;;;;;;;;;143744;624;46023;-53
2021/11/27 12:26:20;;;;;;;24.90;13.60;;;;;;;;;;143739;610;47020;-53
2021/11/27 12:29:10;;;;;;;27.13;16.80;;;;;;;;;;143739;566;47013;-52
2021/11/27 12:31:47;;;;;;;32.70;20.15;;;;;;;;;;143740;566;46019;-52
2021/11/27 12:34:37;;;;;;;29.92;19.60;;;;;;;;;;143744;569;46022;-52
2021/11/27 12:37:23;;;;;;;22.62;14.20;;;;;;;;;;143742;623;47019;-52
2021/11/27 12:39:50;;;;;;;39.33;26.17;;;;;;;;;;143738;630;47012;-52
2021/11/27 12:42:19;;;;;;;27.90;15.27;;;;;;;;;;143739;577;46018;-52
2021/11/27 12:44:55;;;;;;;14.70;7.20;;;;;;;;;;143743;618;46022;-52
2021/11/27 12:47:32;;;;;;;13.00;5.07;;;;;;;;;;143741;569;47018;-52
2021/11/27 12:50:04;;;;;;;18.20;10.75;;;;;;;;;;143738;606;47012;-52
2021/11/27 12:52:33;;;;;;;16.98;8.07;;;;;;;;;;143740;581;46018;-52
2021/11/27 12:55:29;;;;;;;19.55;7.40;;;;;;;;;;143744;574;46022;-52
2021/11/27 12:57:56;;;;;;;22.60;13.43;;;;;;;;;;143740;634;47018;-52
2021/11/27 13:00:26;;;;;;;10.38;5.47;;;;;;;;;;143739;566;47013;-52
2021/11/27 13:03:05;;;;;;;26.35;15.27;;;;;;;;;;143741;589;46018;-52
2021/11/27 13:05:35;;;;;;;22.23;11.02;;;;;;;;;;143744;622;46022;-52
2021/11/27 13:08:04;;;;;;;15.18;6.07;;;;;;;;;;143734;742;48018;-52
2021/11/27 13:10:42;;;;;;;18.30;6.65;;;;;;;;;;143740;569;47012;-52
2021/11/27 13:13:27;;;;;;;17.67;9.25;;;;;;;;;;143740;780;46018;-52
2021/11/27 13:15:55;;;;;;;23.60;8.10;;;;;;;;;;143745;673;46023;-52
2021/11/27 13:18:26;;;;;;;13.45;8.00;;;;;;;;;;143741;605;47018;-53
2021/11/27 13:21:06;;;;;;;15.90;7.80;;;;;;;;;;143741;586;47012;-53
2021/11/27 13:23:36;;;;;;;13.57;7.87;;;;;;;;;;143743;569;46019;-52
2021/11/27 13:26:08;;;;;;;10.23;5.00;;;;;;;;;;143744;775;46022;-52
2021/11/27 13:28:46;;;;;;;11.12;4.12;;;;;;;;;;143739;610;47019;-52
2021/11/27 13:31:51;;;;;;;8.05;3.70;;;;;;;;;;143743;670;46022;-52
2021/11/27 13:34:18;;;;;;;10.05;4.57;;;;;;;;;;143743;608;46020;-52
2021/11/27 13:36:56;;;;;;;13.45;4.45;;;;;;;;;;143744;606;46023;-53
2021/11/27 13:39:34;;;;;;;13.35;7.50;;;;;;;;;;143741;585;47018;-53
2021/11/27 13:42:16;;;;;;;17.23;6.82;;;;;;;;;;143740;617;47012;-53
2021/11/27 13:44:55;;;;;;;15.23;8.38;;;;;;;;;;143741;564;46018;-53
2021/11/27 13:47:33;;;;;;;18.52;7.25;;;;;;;;;;143746;576;45022;-52
2021/11/27 13:50:04;;;;;;;23.52;9.02;;;;;;;;;;143742;673;47020;-53
2021/11/27 13:52:36;;;;;;;14.45;5.30;;;;;;;;;;143744;852;45921;-52
2021/11/27 13:55:13;;;;;;;13.23;4.00;;;;;;;;;;143741;608;46018;-53
2021/11/27 13:57:50;;;;;;;12.85;5.82;;;;;;;;;;143745;649;46022;-53
2021/11/27 14:00:29;;;;;;;15.77;6.95;;;;;;;;;;143741;617;47021;-53
2021/11/27 14:03:09;;;;;;;16.45;4.62;;;;;;;;;;143739;601;47012;-53
2021/11/27 14:05:38;;;;;;;12.15;4.80;;;;;;;;;;143741;631;46018;-53
2021/11/27 14:08:10;;;;;;;11.10;3.25;;;;;;;;;;143743;595;46035;-53
2021/11/27 14:10:39;;;;;;;11.38;5.97;;;;;;;;;;143741;577;47018;-53
2021/11/27 14:13:08;;;;;;;14.82;6.62;;;;;;;;;;143740;594;47010;-53
2021/11/27 14:15:45;;;;;;;19.55;7.75;;;;;;;;;;143743;612;46019;-53
2021/11/27 14:18:18;;;;;;;22.90;9.55;;;;;;;;;;143745;599;46022;-53
2021/11/27 14:20:50;;;;;;;18.15;9.32;;;;;;;;;;143741;630;47019;-53
2021/11/27 14:23:22;;;;;;;14.80;5.10;;;;;;;;;;143741;735;47010;-53
2021/11/27 14:26:17;;;;;;;12.55;4.82;;;;;;;;;;143742;791;46018;-53
2021/11/27 14:28:54;;;;;;;16.77;4.30;;;;;;;;;;143746;606;46022;-53
2021/11/27 14:31:34;;;;;;;14.57;4.47;;;;;;;;;;143742;576;47018;-53
2021/11/27 14:34:06;;;;;;;16.05;4.85;;;;;;;;;;143740;612;47010;-53
2021/11/27 14:36:37;;;;;;;8.50;4.32;;;;;;;;;;143741;627;46018;-53
2021/11/27 14:39:19;;;;;;;17.67;4.75;;;;;;;;;;143745;582;46022;-53
2021/11/27 14:41:47;;;;;;;15.65;6.62;;;;;;;;;;143742;625;47020;-53
2021/11/27 14:44:31;;;;;;;12.98;4.18;;;;;;;;;;143741;614;47010;-53
2021/11/27 14:47:09;;;;;;;14.77;9.48;;;;;;;;;;143741;578;46018;-53